createdAt,value
2023-01-13T00:02:04.000Z,1.2
2023-01-13T00:05:37.000Z,0.7
2023-01-13T00:09:10.000Z,0.7
2023-01-13T00:12:02.000Z,1.1
2023-01-13T00:15:34.000Z,1.5
2023-01-13T00:19:07.000Z,0.4
2023-01-13T00:22:40.000Z,0.8
2023-01-13T00:26:13.000Z,0.4
2023-01-13T00:29:46.000Z,0.5
2023-01-13T00:33:19.000Z,0.3
2023-01-13T00:36:52.000Z,1.4
2023-01-13T00:40:24.000Z,1
2023-01-13T00:43:57.000Z,1.9
2023-01-13T00:47:30.000Z,3.8
2023-01-13T00:50:21.000Z,2.3
2023-01-13T00:53:54.000Z,1.8
2023-01-13T00:57:27.000Z,2.9
2023-01-13T01:01:00.000Z,1.9
2023-01-13T01:04:33.000Z,1.3
2023-01-13T01:08:06.000Z,1.4
2023-01-13T01:11:39.000Z,2.1
2023-01-13T01:15:12.000Z,3
2023-01-13T01:18:45.000Z,2.2
2023-01-13T01:22:17.000Z,2.9
2023-01-13T01:25:50.000Z,2.1
2023-01-13T01:28:41.000Z,2
2023-01-13T01:32:14.000Z,1.3
2023-01-13T01:35:47.000Z,1.9
2023-01-13T01:39:20.000Z,3.1
2023-01-13T01:42:52.000Z,2.4
2023-01-13T01:46:25.000Z,3.4
2023-01-13T01:49:58.000Z,1.5
2023-01-13T01:53:31.000Z,1.5
2023-01-13T01:57:04.000Z,2.8
2023-01-13T02:00:37.000Z,1.3
2023-01-13T02:04:10.000Z,1.2
2023-01-13T02:07:01.000Z,2.6
2023-01-13T02:10:34.000Z,1.4
2023-01-13T02:14:06.000Z,1.5
2023-01-13T02:17:39.000Z,1.8
2023-01-13T02:21:12.000Z,1.6
2023-01-13T02:24:45.000Z,1.6
2023-01-13T02:28:18.000Z,2.2
2023-01-13T02:31:51.000Z,1.7
2023-01-13T02:35:24.000Z,1
2023-01-13T02:38:57.000Z,1.7
2023-01-13T02:42:30.000Z,1.4
2023-01-13T02:45:21.000Z,1
2023-01-13T02:48:54.000Z,1.4
2023-01-13T02:52:27.000Z,1.6
2023-01-13T02:56:00.000Z,1.9
2023-01-13T02:59:32.000Z,1.6
2023-01-13T03:03:05.000Z,1.3
2023-01-13T03:06:38.000Z,1.4
2023-01-13T03:10:11.000Z,1.1
2023-01-13T03:13:43.000Z,0.7
2023-01-13T03:17:16.000Z,1.1
2023-01-13T03:20:48.000Z,1.2
2023-01-13T03:23:40.000Z,2.1
2023-01-13T03:27:12.000Z,0.9
2023-01-13T03:30:45.000Z,0.8
2023-01-13T03:34:18.000Z,0.9
2023-01-13T03:37:50.000Z,1.5
2023-01-13T03:41:23.000Z,3.2
2023-01-13T03:44:56.000Z,0.9
2023-01-13T03:48:28.000Z,1.1
2023-01-13T03:52:01.000Z,1.8
2023-01-13T03:55:33.000Z,1.5
2023-01-13T03:59:06.000Z,1.1
2023-01-13T04:01:57.000Z,0.7
2023-01-13T04:05:30.000Z,1.2
2023-01-13T04:09:03.000Z,0.8
2023-01-13T04:12:36.000Z,1.2
2023-01-13T04:16:08.000Z,2.2
2023-01-13T04:19:41.000Z,1.2
2023-01-13T04:23:13.000Z,1
2023-01-13T04:26:46.000Z,1.8
2023-01-13T04:30:19.000Z,1.5
2023-01-13T04:33:51.000Z,1.2
2023-01-13T04:37:24.000Z,2
2023-01-13T04:40:15.000Z,1.1
2023-01-13T04:43:48.000Z,1.2
2023-01-13T04:47:20.000Z,1.5
2023-01-13T04:50:53.000Z,1.1
2023-01-13T04:54:26.000Z,1
2023-01-13T04:57:58.000Z,0.7
2023-01-13T05:01:33.000Z,0.7
2023-01-13T05:05:05.000Z,1
2023-01-13T05:08:38.000Z,1.2
2023-01-13T05:12:11.000Z,0.3
2023-01-13T05:15:43.000Z,1.3
2023-01-13T05:18:35.000Z,0.3
2023-01-13T05:22:07.000Z,0.6
2023-01-13T05:25:40.000Z,1
2023-01-13T05:29:13.000Z,0.6
2023-01-13T05:32:45.000Z,0.5
2023-01-13T05:36:18.000Z,2.2
2023-01-13T05:39:50.000Z,1.2
2023-01-13T05:43:23.000Z,0.3
2023-01-13T05:46:56.000Z,0.8
2023-01-13T05:50:28.000Z,1.6
2023-01-13T05:54:01.000Z,1.3
2023-01-13T05:56:52.000Z,0.5
2023-01-13T06:00:25.000Z,1.5
2023-01-13T06:03:57.000Z,0.2
2023-01-13T06:07:30.000Z,1.8
2023-01-13T06:11:03.000Z,0.7
2023-01-13T06:14:35.000Z,0.3
2023-01-13T06:18:08.000Z,0.7
2023-01-13T06:21:41.000Z,2
2023-01-13T06:25:13.000Z,0.3
2023-01-13T06:28:46.000Z,2.4
2023-01-13T06:32:19.000Z,0.6
2023-01-13T06:35:10.000Z,0.4
2023-01-13T06:38:43.000Z,1.9
2023-01-13T06:42:15.000Z,0.9
2023-01-13T06:45:48.000Z,1.4
2023-01-13T06:49:21.000Z,2.1
2023-01-13T06:52:53.000Z,1.4
2023-01-13T06:56:26.000Z,2.5
2023-01-13T06:59:59.000Z,3.4
2023-01-13T07:03:32.000Z,1
2023-01-13T07:07:04.000Z,2
2023-01-13T07:10:37.000Z,2
2023-01-13T07:13:28.000Z,3.2
2023-01-13T07:17:01.000Z,1.1
2023-01-13T07:20:33.000Z,0.6
2023-01-13T07:24:06.000Z,2.3
2023-01-13T07:27:39.000Z,3.6
2023-01-13T07:31:11.000Z,3.7
2023-01-13T07:34:44.000Z,1.6
2023-01-13T07:38:17.000Z,1.7
2023-01-13T07:41:50.000Z,1.9
2023-01-13T07:45:22.000Z,0.4
2023-01-13T07:48:55.000Z,1.4
2023-01-13T07:51:46.000Z,3.5
2023-01-13T07:55:19.000Z,1.5
2023-01-13T07:58:51.000Z,2.6
2023-01-13T08:02:24.000Z,2.5
2023-01-13T08:05:57.000Z,3.2
2023-01-13T08:09:30.000Z,3.9
2023-01-13T08:13:02.000Z,1.7
2023-01-13T08:16:35.000Z,2.3
2023-01-13T08:20:08.000Z,3.4
2023-01-13T08:23:40.000Z,3.1
2023-01-13T08:27:13.000Z,1.3
2023-01-13T08:30:04.000Z,6.1
2023-01-13T08:33:37.000Z,5
2023-01-13T08:37:10.000Z,5.3
2023-01-13T08:40:42.000Z,5.1
2023-01-13T08:44:15.000Z,4.7
2023-01-13T08:47:48.000Z,4.3
2023-01-13T08:51:20.000Z,4
2023-01-13T08:54:53.000Z,3.6
2023-01-13T08:58:26.000Z,3.4
2023-01-13T09:01:58.000Z,6.3
2023-01-13T09:05:31.000Z,3.1
2023-01-13T09:08:22.000Z,4
2023-01-13T09:11:55.000Z,4.5
2023-01-13T09:15:28.000Z,3.4
2023-01-13T09:19:00.000Z,2.6
2023-01-13T09:22:34.000Z,6.1
2023-01-13T09:26:07.000Z,3.6
2023-01-13T09:29:39.000Z,3
2023-01-13T09:33:12.000Z,4.5
2023-01-13T09:36:45.000Z,3.9
2023-01-13T09:40:18.000Z,5.3
2023-01-13T09:43:50.000Z,3.2
2023-01-13T09:46:42.000Z,5.2
2023-01-13T09:50:14.000Z,3.9
2023-01-13T09:53:47.000Z,5.5
2023-01-13T09:57:19.000Z,3.1
2023-01-13T10:00:52.000Z,3.9
2023-01-13T10:04:25.000Z,4.3
2023-01-13T10:07:58.000Z,4.1
2023-01-13T10:11:30.000Z,3.4
2023-01-13T10:15:03.000Z,3.9
2023-01-13T10:18:36.000Z,4.2
2023-01-13T10:22:08.000Z,3.4
2023-01-13T10:24:59.000Z,4
2023-01-13T10:28:32.000Z,3.1
2023-01-13T10:32:05.000Z,4.8
2023-01-13T10:35:37.000Z,4
2023-01-13T10:39:10.000Z,4.1
2023-01-13T10:42:43.000Z,5.4
2023-01-13T10:46:15.000Z,2.1
2023-01-13T10:49:48.000Z,6.6
2023-01-13T10:53:21.000Z,5.8
2023-01-13T10:56:53.000Z,3.8
2023-01-13T11:00:26.000Z,5.9
2023-01-13T11:03:17.000Z,5
2023-01-13T11:06:50.000Z,6.2
2023-01-13T11:10:23.000Z,4.7
2023-01-13T11:13:55.000Z,10.3
2023-01-13T11:17:28.000Z,5.1
2023-01-13T11:21:01.000Z,4.9
2023-01-13T11:24:34.000Z,5.7
2023-01-13T11:28:06.000Z,6.5
2023-01-13T11:31:39.000Z,6.3
2023-01-13T11:35:12.000Z,8.9
2023-01-13T11:38:44.000Z,6
2023-01-13T11:41:35.000Z,7.8
2023-01-13T11:45:08.000Z,9.8
2023-01-13T11:48:41.000Z,6.8
2023-01-13T11:52:14.000Z,8.9
2023-01-13T11:55:46.000Z,7.9
2023-01-13T11:59:19.000Z,10.6
2023-01-13T12:02:52.000Z,10.6
2023-01-13T12:06:24.000Z,7.7
2023-01-13T12:09:57.000Z,6.4
2023-01-13T12:13:30.000Z,7.8
2023-01-13T12:17:03.000Z,8.6
2023-01-13T12:19:54.000Z,7.5
2023-01-13T12:23:27.000Z,8.6
2023-01-13T12:26:59.000Z,11.4
2023-01-13T12:30:32.000Z,11.6
2023-01-13T12:34:05.000Z,7.9
2023-01-13T12:37:37.000Z,6.4
2023-01-13T12:41:10.000Z,10.1
2023-01-13T12:44:43.000Z,8.4
2023-01-13T12:48:15.000Z,8.4
2023-01-13T12:51:48.000Z,11.9
2023-01-13T12:55:21.000Z,6.7
2023-01-13T12:58:12.000Z,9
2023-01-13T13:01:44.000Z,7.2
2023-01-13T13:05:18.000Z,7.8
2023-01-13T13:08:51.000Z,9.7
2023-01-13T13:12:23.000Z,9.8
2023-01-13T13:15:56.000Z,9.3
2023-01-13T13:19:28.000Z,10.2
2023-01-13T13:23:03.000Z,8.1
2023-01-13T13:26:36.000Z,7.7
2023-01-13T13:30:08.000Z,10.9
2023-01-13T13:33:41.000Z,9
2023-01-13T13:36:32.000Z,9.4
2023-01-13T13:40:07.000Z,7.8
2023-01-13T13:43:39.000Z,8.6
2023-01-13T13:47:12.000Z,10
2023-01-13T13:50:45.000Z,10.9
2023-01-13T13:54:18.000Z,8.7
2023-01-13T13:57:50.000Z,7.1
2023-01-13T14:01:23.000Z,11.7
2023-01-13T14:04:56.000Z,12.4
2023-01-13T14:08:29.000Z,8.8
2023-01-13T14:12:01.000Z,10.7
2023-01-13T14:14:53.000Z,11.1
2023-01-13T14:18:26.000Z,9.1
2023-01-13T14:21:58.000Z,11.7
2023-01-13T14:25:31.000Z,8.1
2023-01-13T14:29:03.000Z,9.5
2023-01-13T14:32:36.000Z,6.7
2023-01-13T14:36:31.000Z,11.4
2023-01-13T14:40:04.000Z,7
2023-01-13T14:43:37.000Z,12.5
2023-01-13T14:47:09.000Z,12.2
2023-01-13T14:50:42.000Z,8.5
2023-01-13T14:53:33.000Z,8.4
2023-01-13T14:57:06.000Z,7
2023-01-13T15:00:38.000Z,8.1
2023-01-13T15:04:11.000Z,7.4
2023-01-13T15:07:44.000Z,7.3
2023-01-13T15:11:16.000Z,5.3
2023-01-13T15:14:51.000Z,7
2023-01-13T15:18:24.000Z,6.4
2023-01-13T15:21:56.000Z,8.4
2023-01-13T15:25:29.000Z,6.5
2023-01-13T15:29:02.000Z,7.5
2023-01-13T15:31:53.000Z,8.4
2023-01-13T15:35:26.000Z,7.4
2023-01-13T15:38:58.000Z,6.7
2023-01-13T15:42:31.000Z,7
2023-01-13T15:46:04.000Z,7.8
2023-01-13T15:49:36.000Z,8.5
2023-01-13T15:53:09.000Z,7
2023-01-13T15:56:41.000Z,6.1
2023-01-13T16:00:14.000Z,6
2023-01-13T16:03:47.000Z,6.9
2023-01-13T16:07:21.000Z,7.3
2023-01-13T16:10:13.000Z,6.4
2023-01-13T16:13:45.000Z,8.4
2023-01-13T16:17:18.000Z,6.8
2023-01-13T16:20:51.000Z,7.2
2023-01-13T16:24:23.000Z,6.7
2023-01-13T16:27:56.000Z,6.5
2023-01-13T16:31:29.000Z,10.6
2023-01-13T16:35:01.000Z,3.4
2023-01-13T16:38:34.000Z,7.6
2023-01-13T16:42:07.000Z,8.3
2023-01-13T16:45:39.000Z,8.4
2023-01-13T16:48:30.000Z,5.6
2023-01-13T16:52:03.000Z,8.1
2023-01-13T16:55:36.000Z,10.7
2023-01-13T16:59:08.000Z,9.6
2023-01-13T17:02:41.000Z,8.7
2023-01-13T17:06:14.000Z,14.7
2023-01-13T17:09:46.000Z,10
2023-01-13T17:13:19.000Z,6.8
2023-01-13T17:16:52.000Z,6.6
2023-01-13T17:20:24.000Z,5.8
2023-01-13T17:23:57.000Z,9
2023-01-13T17:26:48.000Z,7
2023-01-13T17:30:21.000Z,5.9
2023-01-13T17:33:54.000Z,7.1
2023-01-13T17:37:26.000Z,6.4
2023-01-13T17:40:59.000Z,8.5
2023-01-13T17:44:32.000Z,8.7
2023-01-13T17:48:04.000Z,9.8
2023-01-13T17:51:37.000Z,9
2023-01-13T17:55:10.000Z,10.2
2023-01-13T17:58:43.000Z,8.6
2023-01-13T18:02:15.000Z,6.9
2023-01-13T18:05:06.000Z,11
2023-01-13T18:08:39.000Z,19.8
2023-01-13T18:12:12.000Z,14
2023-01-13T18:15:44.000Z,9.2
2023-01-13T18:19:17.000Z,13.5
2023-01-13T18:22:49.000Z,13.1
2023-01-13T18:26:22.000Z,13.3
2023-01-13T18:29:55.000Z,14.4
2023-01-13T18:33:27.000Z,14.4
2023-01-13T18:37:05.000Z,11.1
2023-01-13T18:40:37.000Z,17.4
2023-01-13T18:43:28.000Z,9.7
2023-01-13T18:47:01.000Z,10.2
2023-01-13T18:50:34.000Z,9.4
2023-01-13T18:54:06.000Z,9.3
2023-01-13T18:57:39.000Z,8.2
2023-01-13T19:01:12.000Z,14.1
2023-01-13T19:04:45.000Z,14.2
2023-01-13T19:08:17.000Z,10
2023-01-13T19:11:50.000Z,9.4
2023-01-13T19:15:23.000Z,12.4
2023-01-13T19:18:56.000Z,8.8
2023-01-13T19:21:47.000Z,11.1
2023-01-13T19:25:19.000Z,10.3
2023-01-13T19:28:52.000Z,8.8
2023-01-13T19:32:24.000Z,11.7
2023-01-13T19:35:57.000Z,9.7
2023-01-13T19:39:30.000Z,13.1
2023-01-13T19:43:02.000Z,8.9
2023-01-13T19:46:35.000Z,10.6
2023-01-13T19:50:08.000Z,10.8
2023-01-13T19:53:40.000Z,7.9
2023-01-13T19:57:13.000Z,7.5
2023-01-13T20:00:04.000Z,7.6
2023-01-13T20:03:37.000Z,5.6
2023-01-13T20:07:09.000Z,8
2023-01-13T20:10:42.000Z,10.6
2023-01-13T20:14:15.000Z,8.6
2023-01-13T20:17:47.000Z,8.1
2023-01-13T20:21:20.000Z,12.1
2023-01-13T20:24:52.000Z,7.6
2023-01-13T20:28:25.000Z,14.1
2023-01-13T20:31:58.000Z,30.8
2023-01-13T20:35:30.000Z,15.5
2023-01-13T20:38:22.000Z,9.6
2023-01-13T20:41:54.000Z,5.1
2023-01-13T20:45:27.000Z,5.6
2023-01-13T20:48:59.000Z,6
2023-01-13T20:52:32.000Z,8.9
2023-01-13T20:56:04.000Z,8.1
2023-01-13T20:59:39.000Z,9.5
2023-01-13T21:03:12.000Z,8.3
2023-01-13T21:06:45.000Z,8.9
2023-01-13T21:10:18.000Z,10.2
2023-01-13T21:13:50.000Z,9.5
2023-01-13T21:16:42.000Z,10.2
2023-01-13T21:20:14.000Z,12.6
2023-01-13T21:23:47.000Z,10.3
2023-01-13T21:27:20.000Z,13.8
2023-01-13T21:30:52.000Z,9.4
2023-01-13T21:34:25.000Z,9.3
2023-01-13T21:37:57.000Z,9.7
2023-01-13T21:41:30.000Z,11.2
2023-01-13T21:45:03.000Z,6.8
2023-01-13T21:48:35.000Z,10.2
2023-01-13T21:52:08.000Z,12.2
2023-01-13T21:54:59.000Z,12.1
2023-01-13T21:58:32.000Z,13.2
2023-01-13T22:02:04.000Z,9.2
2023-01-13T22:05:50.000Z,10.2
2023-01-13T22:09:22.000Z,9.7
2023-01-13T22:12:56.000Z,13.7
2023-01-13T22:16:29.000Z,11.3
2023-01-13T22:20:02.000Z,9.9
2023-01-13T22:23:34.000Z,8.9
2023-01-13T22:27:07.000Z,12.2
2023-01-13T22:30:40.000Z,13.3
2023-01-13T22:33:31.000Z,9.1
2023-01-13T22:37:03.000Z,9.1
2023-01-13T22:40:36.000Z,8
2023-01-13T22:44:08.000Z,12.5
2023-01-13T22:47:41.000Z,12.9
2023-01-13T22:51:14.000Z,11.5
2023-01-13T22:54:46.000Z,10.8
2023-01-13T22:58:19.000Z,11.2
2023-01-13T23:01:51.000Z,13
2023-01-13T23:05:24.000Z,12.3
2023-01-13T23:08:57.000Z,15.1
2023-01-13T23:11:48.000Z,10.6
2023-01-13T23:15:20.000Z,11.7
2023-01-13T23:18:53.000Z,12.7
2023-01-13T23:22:25.000Z,11.3
2023-01-13T23:25:58.000Z,10.9
2023-01-13T23:29:31.000Z,11.6
2023-01-13T23:33:03.000Z,15.7
2023-01-13T23:36:36.000Z,15.7
2023-01-13T23:40:08.000Z,12.6
2023-01-13T23:43:41.000Z,13.1
2023-01-13T23:47:14.000Z,15.6
2023-01-13T23:50:05.000Z,18.7
2023-01-13T23:53:38.000Z,15.7
2023-01-13T23:57:10.000Z,14
